SARP/PSS METAR and TAF weather

Enter ICAO airport designator
Station Type Date Time Source
SARP METAR 2021/09/28 03:00 UTC NOAA

SARP 280300Z 09004KT CAVOK 25/18 Q1012


Station Type Date Time Source
SARP Decoded METAR 2021/09/28 03:00 UTC NOAA

Posadas Aero., Argentina (SARP) 27-22S 055-58W 133M
Sep 27, 2021 - 11:00 PM EDT / 2021.09.28 0300 UTC
Wind: from the E (090 degrees) at 5 MPH (4 KT):0
Visibility: greater than 7 mile(s):0
Temperature: 77 F (25 C)
Dew Point: 64 F (18 C)
Relative Humidity: 65%
Pressure (altimeter): 29.88 in. Hg (1012 hPa)
ob: SARP 280300Z 09004KT CAVOK 25/18 Q1012
cycle: 3

Station Type Date Time Source
SARP TAF 2021/09/28 00:00 UTC NOAA

TAF SARP 272300Z 2800/2824 09005KT CAVOK TX30/2819Z TN19/2810Z
BECMG 2812/2814 8000 FEW050CB SCT090
TEMPO 2814/2818 6000 SHRA SCT025 FEW050CB BKN090
BECMG 2818/2820 6000 TSRA BKN020 FEW050CB BKN090

Example: see airport list